Time;durP1;ratioP1;P1;durP2;ratioP2;P2;SDS_P1;SDS_P2;PMS_P1;PMS_P2;Temp;Humidity;BMP_temperature;BMP_pressure;BME280_temperature;BME280_humidity;BME280_pressure;Samples;Min_cycle;Max_cycle;Signal;HPM_P1;HPM_P2
2021/09/09 00:02:14;;;;;;;;;20.00;19.25;;;;;-147.91;100.00;58652.34;5047186;28;45588;-92
2021/09/09 00:04:39;;;;;;;;;23.50;15.75;;;;;-147.91;100.00;58652.34;5032355;28;45586;-92
2021/09/09 00:07:05;;;;;;;;;18.50;14.25;;;;;-147.91;100.00;58652.34;5044663;28;45542;-92
2021/09/09 00:09:33;;;;;;;;;19.25;17.00;;;;;-147.91;100.00;58652.34;5025451;28;45515;-93
2021/09/09 00:11:59;;;;;;;;;20.50;15.75;;;;;-147.91;100.00;58652.34;5027924;28;45428;-92
2021/09/09 00:14:24;;;;;;;;;19.75;19.25;;;;;-147.91;100.00;58652.34;5030651;28;45625;-93
2021/09/09 00:16:50;;;;;;;;;21.25;17.50;;;;;-147.91;100.00;58652.34;5042333;28;45965;-93
2021/09/09 00:19:15;;;;;;;;;18.50;16.00;;;;;-147.91;100.00;58652.34;5048059;28;46323;-91
2021/09/09 00:21:41;;;;;;;;;20.50;17.75;;;;;-147.91;100.00;58652.34;5032506;28;45728;-90
2021/09/09 00:24:06;;;;;;;;;19.75;16.50;;;;;-147.91;100.00;58652.34;5045763;28;45405;-93
2021/09/09 00:26:32;;;;;;;;;21.25;16.50;;;;;-147.91;100.00;58652.34;5050848;28;45830;-93
2021/09/09 00:28:57;;;;;;;;;20.00;18.25;;;;;-147.91;100.00;58652.34;5044402;28;45476;-93
2021/09/09 00:31:23;;;;;;;;;17.50;14.00;;;;;-147.91;100.00;58652.34;5031274;28;45680;-92
2021/09/09 00:33:48;;;;;;;;;18.50;15.25;;;;;-147.91;100.00;58652.34;5040056;28;45621;-93
2021/09/09 00:36:14;;;;;;;;;14.75;14.25;;;;;-147.91;100.00;58652.34;5031770;28;47388;-91
2021/09/09 00:38:39;;;;;;;;;17.50;15.50;;;;;-147.91;100.00;58652.34;5044105;28;46453;-93
2021/09/09 00:41:05;;;;;;;;;16.50;14.00;;;;;-147.91;100.00;58652.34;5051546;28;54090;-93
2021/09/09 00:43:31;;;;;;;;;23.75;17.25;;;;;-147.91;100.00;58652.34;5045508;28;45705;-94
2021/09/09 00:45:56;;;;;;;;;18.00;16.00;;;;;-147.91;100.00;58652.34;5029945;28;47123;-93
2021/09/09 00:48:23;;;;;;;;;15.50;15.00;;;;;-147.91;100.00;58652.34;5032832;28;45463;-93
2021/09/09 00:50:50;;;;;;;;;18.50;14.50;;;;;-147.91;100.00;58652.34;5028669;28;45623;-93
2021/09/09 00:53:15;;;;;;;;;19.25;14.50;;;;;-147.91;100.00;58652.34;5032925;28;45535;-93
2021/09/09 00:55:41;;;;;;;;;18.00;15.50;;;;;-147.91;100.00;58652.34;5042815;28;46342;-92
2021/09/09 00:58:08;;;;;;;;;16.00;14.50;;;;;-147.91;100.00;58652.34;5034948;28;45525;-93
2021/09/09 01:00:36;;;;;;;;;15.00;14.00;;;;;-147.91;100.00;58652.34;5027787;28;45573;-93
2021/09/09 01:03:01;;;;;;;;;18.00;14.00;;;;;-147.91;100.00;58652.34;5024793;28;45463;-93
2021/09/09 01:05:27;;;;;;;;;14.25;13.75;;;;;-147.91;100.00;58652.34;5031463;28;47376;-93
2021/09/09 01:07:53;;;;;;;;;14.00;12.50;;;;;-147.91;100.00;58652.34;5027731;28;45691;-92
2021/09/09 01:13:38;;;;;;;;;14.75;14.00;;;;;-147.91;100.00;58652.34;5041446;28;45636;-93
2021/09/09 01:16:04;;;;;;;;;12.75;12.75;;;;;-147.91;100.00;58652.34;5047100;28;47747;-93
2021/09/09 01:18:29;;;;;;;;;14.75;14.00;;;;;-147.91;100.00;58652.34;5052240;28;45434;-93
2021/09/09 01:20:55;;;;;;;;;15.25;12.25;;;;;-147.91;100.00;58652.34;5036503;28;45652;-93
2021/09/09 01:23:21;;;;;;;;;11.75;11.00;;;;;-147.91;100.00;58652.34;5030152;28;45522;-91
2021/09/09 01:25:47;;;;;;;;;17.75;11.75;;;;;-147.91;100.00;58652.34;5033051;28;47205;-93
2021/09/09 01:28:12;;;;;;;;;12.25;10.75;;;;;-147.91;100.00;58652.34;5033220;28;45563;-95
2021/09/09 01:30:38;;;;;;;;;14.25;13.00;;;;;-147.91;100.00;58652.34;5050413;28;45590;-93
2021/09/09 01:33:04;;;;;;;;;13.50;13.00;;;;;-147.91;100.00;58652.34;5030136;28;45495;-93
2021/09/09 01:35:30;;;;;;;;;16.50;13.50;;;;;-147.91;100.00;58652.34;5031445;28;47096;-94
2021/09/09 01:37:55;;;;;;;;;13.50;13.50;;;;;-147.91;100.00;58652.34;5025364;28;45428;-93
2021/09/09 01:40:31;;;;;;;;;14.00;12.25;;;;;-147.91;100.00;58652.34;5031078;28;45495;-94
2021/09/09 01:42:58;;;;;;;;;12.00;11.75;;;;;-147.91;100.00;58652.34;5035373;28;46632;-93
2021/09/09 01:45:23;;;;;;;;;13.25;12.25;;;;;-147.91;100.00;58652.34;5051284;28;46208;-93
2021/09/09 01:47:49;;;;;;;;;14.00;12.00;;;;;-147.91;100.00;58652.34;5031618;28;45699;-92
2021/09/09 01:50:14;;;;;;;;;19.00;12.50;;;;;-147.91;100.00;58652.34;5051004;28;45584;-93
2021/09/09 01:52:40;;;;;;;;;14.25;14.25;;;;;-147.91;100.00;58652.34;5028947;28;45739;-94
2021/09/09 01:55:06;;;;;;;;;13.75;13.75;;;;;-147.91;100.00;58652.34;5027321;28;46700;-94
2021/09/09 01:57:31;;;;;;;;;14.25;14.00;;;;;-147.91;100.00;58652.34;5028555;28;45567;-94
2021/09/09 01:59:58;;;;;;;;;18.50;12.75;;;;;-147.91;100.00;58652.34;5031153;28;45849;-93
2021/09/09 02:02:25;;;;;;;;;16.00;11.75;;;;;-147.91;100.00;58652.34;5049185;28;45339;-94
2021/09/09 02:04:50;;;;;;;;;17.25;13.75;;;;;-147.91;100.00;58652.34;5028037;28;47711;-94
2021/09/09 02:07:16;;;;;;;;;14.50;11.75;;;;;-147.91;100.00;58652.34;5042400;28;45521;-93
2021/09/09 02:09:41;;;;;;;;;14.25;12.25;;;;;-147.91;100.00;58652.34;5033880;28;45698;-94
2021/09/09 02:12:07;;;;;;;;;16.50;13.00;;;;;-147.91;100.00;58652.34;5041589;28;45395;-94
2021/09/09 02:14:32;;;;;;;;;14.00;13.00;;;;;-147.91;100.00;58652.34;5029234;28;46888;-93
2021/09/09 02:16:58;;;;;;;;;16.25;12.75;;;;;-147.91;100.00;58652.34;5044150;28;45628;-94
2021/09/09 02:19:23;;;;;;;;;16.75;13.75;;;;;-147.91;100.00;58652.34;5028084;28;45514;-95
2021/09/09 02:21:49;;;;;;;;;14.50;13.00;;;;;-147.91;100.00;58652.34;5028249;28;45537;-94
2021/09/09 02:24:14;;;;;;;;;17.50;17.50;;;;;-147.91;100.00;58652.34;5026276;28;47559;-94
2021/09/09 02:26:40;;;;;;;;;14.25;13.25;;;;;-147.91;100.00;58652.34;5027655;28;45663;-93
2021/09/09 02:29:05;;;;;;;;;13.50;12.00;;;;;-147.91;100.00;58652.34;5052337;28;45771;-93
2021/09/09 02:31:31;;;;;;;;;20.25;13.75;;;;;-147.91;100.00;58652.34;5029142;28;45524;-95
2021/09/09 02:33:56;;;;;;;;;18.00;13.00;;;;;-147.91;100.00;58652.34;5031491;28;47262;-93
2021/09/09 02:36:22;;;;;;;;;17.75;14.75;;;;;-147.91;100.00;58652.34;5031575;28;45559;-93
2021/09/09 02:38:47;;;;;;;;;15.50;12.75;;;;;-147.91;100.00;58652.34;5032647;28;45621;-94
2021/09/09 02:41:13;;;;;;;;;15.25;15.00;;;;;-147.91;100.00;58652.34;5043625;28;45300;-94
2021/09/09 02:43:38;;;;;;;;;14.25;12.75;;;;;-147.91;100.00;58652.34;5027280;28;48090;-94
2021/09/09 02:46:04;;;;;;;;;20.75;14.75;;;;;-147.91;100.00;58652.34;5031634;28;46331;-94
2021/09/09 02:48:29;;;;;;;;;16.50;14.50;;;;;-147.91;100.00;58652.34;5034573;28;45343;-93
2021/09/09 02:50:55;;;;;;;;;19.75;13.50;;;;;-147.91;100.00;58652.34;5044600;28;45878;-94
2021/09/09 02:53:20;;;;;;;;;15.25;13.50;;;;;-147.91;100.00;58652.34;5047185;28;45645;-94
2021/09/09 02:55:46;;;;;;;;;18.50;14.50;;;;;-147.91;100.00;58652.34;5044508;28;45442;-94
2021/09/09 02:58:11;;;;;;;;;19.75;16.25;;;;;-147.91;100.00;58652.34;5046611;28;45582;-94
2021/09/09 03:00:37;;;;;;;;;13.00;12.25;;;;;-147.91;100.00;58652.34;5033447;28;45463;-94
2021/09/09 03:03:02;;;;;;;;;20.00;15.00;;;;;-147.91;100.00;58652.34;5045934;28;47239;-94
2021/09/09 03:05:28;;;;;;;;;17.00;14.00;;;;;-147.91;100.00;58652.34;5033408;28;46556;-95
2021/09/09 03:07:53;;;;;;;;;19.75;14.75;;;;;-147.91;100.00;58652.34;5025673;28;45443;-94
2021/09/09 03:10:19;;;;;;;;;16.75;13.50;;;;;-147.91;100.00;58652.34;5048771;28;45431;-94
2021/09/09 03:12:44;;;;;;;;;16.75;13.00;;;;;-147.91;100.00;58652.34;5051937;28;45517;-94
2021/09/09 03:15:10;;;;;;;;;16.50;14.50;;;;;-147.91;100.00;58652.34;5033032;28;45554;-95
2021/09/09 03:17:36;;;;;;;;;17.00;17.00;;;;;-147.91;100.00;58652.34;5045138;28;45487;-95
2021/09/09 03:20:02;;;;;;;;;20.00;16.25;;;;;-147.91;100.00;58652.34;5025432;28;45729;-93
2021/09/09 03:22:28;;;;;;;;;22.00;18.75;;;;;-147.91;100.00;58652.34;5027572;28;47877;-94
2021/09/09 03:24:53;;;;;;;;;21.00;16.00;;;;;-147.91;100.00;58652.34;5042376;28;45460;-93
2021/09/09 03:27:19;;;;;;;;;18.75;15.25;;;;;-147.91;100.00;58652.34;5032155;28;45508;-94
2021/09/09 03:29:44;;;;;;;;;18.75;16.75;;;;;-147.91;100.00;58652.34;5046508;28;45644;-93
2021/09/09 03:32:10;;;;;;;;;20.50;16.50;;;;;-147.91;100.00;58652.34;5032698;28;47204;-94
2021/09/09 03:34:35;;;;;;;;;18.25;14.75;;;;;-147.91;100.00;58652.34;5040262;28;45539;-94
2021/09/09 03:37:01;;;;;;;;;21.25;16.25;;;;;-147.91;100.00;58652.34;5043193;28;45369;-94
2021/09/09 03:39:26;;;;;;;;;16.75;13.25;;;;;-147.91;100.00;58652.34;5023007;28;45618;-94
2021/09/09 03:41:52;;;;;;;;;18.75;16.25;;;;;-147.91;100.00;58652.34;5035009;28;47471;-94
2021/09/09 03:44:17;;;;;;;;;16.00;16.00;;;;;-147.91;100.00;58652.34;5021384;28;45514;-94
2021/09/09 03:46:43;;;;;;;;;16.75;15.25;;;;;-147.91;100.00;58652.34;5042635;28;45643;-95
2021/09/09 03:49:09;;;;;;;;;22.00;16.25;;;;;-147.91;100.00;58652.34;5040655;28;45517;-95
2021/09/09 03:51:34;;;;;;;;;19.75;17.25;;;;;-147.91;100.00;58652.34;5029029;28;47079;-94
2021/09/09 03:54:00;;;;;;;;;20.25;17.00;;;;;-147.91;100.00;58652.34;5028420;28;45581;-93
2021/09/09 03:56:25;;;;;;;;;25.00;17.75;;;;;-147.91;100.00;58652.34;5028130;28;45502;-94
2021/09/09 03:58:50;;;;;;;;;24.00;19.00;;;;;-147.91;100.00;58652.34;5025943;28;46235;-94
2021/09/09 04:01:16;;;;;;;;;21.25;17.00;;;;;-147.91;100.00;58652.34;5024607;28;46968;-94
2021/09/09 04:03:41;;;;;;;;;21.50;19.00;;;;;-147.91;100.00;58652.34;5024638;28;45794;-94
2021/09/09 04:06:07;;;;;;;;;24.75;19.25;;;;;-147.91;100.00;58652.34;5028722;28;46701;-94
2021/09/09 04:08:32;;;;;;;;;22.00;18.00;;;;;-147.91;100.00;58652.34;5031053;28;45494;-94
2021/09/09 04:10:58;;;;;;;;;26.25;21.00;;;;;-147.91;100.00;58652.34;5040270;28;52589;-95
2021/09/09 04:13:23;;;;;;;;;21.50;16.75;;;;;-147.91;100.00;58652.34;5029761;28;45618;-94
2021/09/09 04:15:49;;;;;;;;;23.75;21.75;;;;;-147.91;100.00;58652.34;5031038;28;45941;-94
2021/09/09 04:18:14;;;;;;;;;25.50;17.50;;;;;-147.91;100.00;58652.34;5023282;28;45581;-94
2021/09/09 04:20:39;;;;;;;;;26.25;22.25;;;;;-147.91;100.00;58652.34;5029579;28;47268;-95
2021/09/09 04:23:05;;;;;;;;;22.50;18.25;;;;;-147.91;100.00;58652.34;5033074;28;45341;-94
2021/09/09 04:25:31;;;;;;;;;23.50;20.75;;;;;-147.91;100.00;58652.34;5031709;28;45700;-94
2021/09/09 04:27:57;;;;;;;;;20.25;19.00;;;;;-147.91;100.00;58652.34;5048058;28;45600;-94
2021/09/09 04:30:23;;;;;;;;;18.50;17.50;;;;;-147.91;100.00;58652.34;5044636;28;45420;-94
2021/09/09 04:32:48;;;;;;;;;22.75;20.00;;;;;-147.91;100.00;58652.34;5025353;28;45561;-93
2021/09/09 04:35:13;;;;;;;;;24.00;18.25;;;;;-147.91;100.00;58652.34;5030760;28;45594;-93
2021/09/09 04:37:39;;;;;;;;;21.25;18.25;;;;;-147.91;100.00;58652.34;5027062;28;45721;-92
2021/09/09 04:40:05;;;;;;;;;20.50;18.50;;;;;-147.91;100.00;58652.34;5045192;28;46523;-94
2021/09/09 04:42:31;;;;;;;;;26.50;18.50;;;;;-147.91;100.00;58652.34;5045278;28;45534;-95
2021/09/09 04:44:56;;;;;;;;;24.75;21.25;;;;;-147.91;100.00;58652.34;5025641;28;45598;-95
2021/09/09 04:47:22;;;;;;;;;19.75;17.25;;;;;-147.91;100.00;58652.34;5031228;28;45546;-94
2021/09/09 04:49:47;;;;;;;;;26.00;21.25;;;;;-147.91;100.00;58652.34;5028452;28;45829;-95
2021/09/09 04:52:13;;;;;;;;;21.00;19.00;;;;;-147.91;100.00;58652.34;5040647;28;45724;-94
2021/09/09 04:54:38;;;;;;;;;24.00;19.50;;;;;-147.91;100.00;58652.34;5029678;28;45452;-94
2021/09/09 04:57:04;;;;;;;;;23.25;20.00;;;;;-147.91;100.00;58652.34;5031228;28;45816;-94
2021/09/09 04:59:29;;;;;;;;;23.50;19.75;;;;;-147.91;100.00;58652.34;5044164;28;46911;-95
2021/09/09 05:01:55;;;;;;;;;26.75;23.75;;;;;-147.91;100.00;58652.34;5042563;28;45780;-94
2021/09/09 05:04:21;;;;;;;;;25.00;22.00;;;;;-147.91;100.00;58652.34;5026211;28;45657;-95
2021/09/09 05:06:46;;;;;;;;;25.00;22.25;;;;;-147.91;100.00;58652.34;5023644;28;45539;-94
2021/09/09 05:09:12;;;;;;;;;22.50;21.00;;;;;-147.91;100.00;58652.34;5021888;28;47183;-94
2021/09/09 05:11:37;;;;;;;;;29.00;24.25;;;;;-147.91;100.00;58652.34;5022855;28;45763;-94
2021/09/09 05:14:03;;;;;;;;;31.50;24.75;;;;;-147.91;100.00;58652.34;5029693;28;46527;-94
2021/09/09 05:16:29;;;;;;;;;32.75;27.75;;;;;-147.91;100.00;58652.34;5042011;28;45456;-94
2021/09/09 05:18:54;;;;;;;;;30.50;25.50;;;;;-147.91;100.00;58652.34;5029377;28;46910;-94
2021/09/09 05:21:19;;;;;;;;;33.75;29.50;;;;;-147.91;100.00;58652.34;5026829;28;45718;-94
2021/09/09 05:23:45;;;;;;;;;28.75;24.50;;;;;-147.91;100.00;58652.34;5026416;28;45789;-94
2021/09/09 05:26:10;;;;;;;;;27.50;24.75;;;;;-147.91;100.00;58652.34;5026697;28;45662;-93
2021/09/09 05:28:36;;;;;;;;;34.75;26.50;;;;;-147.91;100.00;58652.34;5027126;28;47045;-95
2021/09/09 05:31:01;;;;;;;;;29.25;25.75;;;;;-147.91;100.00;58652.34;5028405;28;45565;-93
2021/09/09 05:33:29;;;;;;;;;28.50;26.25;;;;;-147.91;100.00;58652.34;5040875;28;45512;-96
2021/09/09 05:35:55;;;;;;;;;28.00;26.00;;;;;-147.91;100.00;58652.34;5024021;28;45643;-94
2021/09/09 05:38:20;;;;;;;;;28.50;27.50;;;;;-147.91;100.00;58652.34;5022453;28;48230;-95
2021/09/09 05:40:49;;;;;;;;;28.00;25.50;;;;;-147.91;100.00;58652.34;5040569;28;45640;-94
2021/09/09 05:43:14;;;;;;;;;29.75;25.00;;;;;-147.91;100.00;58652.34;5039526;28;45507;-93
2021/09/09 05:45:40;;;;;;;;;34.25;29.25;;;;;-147.91;100.00;58652.34;5027102;28;45411;-93
2021/09/09 05:48:06;;;;;;;;;36.00;29.25;;;;;-147.91;100.00;58652.34;5028213;28;48775;-93
2021/09/09 05:50:31;;;;;;;;;31.75;29.00;;;;;-147.91;100.00;58652.34;5023412;28;45463;-94
2021/09/09 05:52:57;;;;;;;;;29.00;25.50;;;;;-147.91;100.00;58652.34;5019176;28;45500;-93
2021/09/09 05:55:22;;;;;;;;;31.00;27.25;;;;;-147.91;100.00;58652.34;5051147;22;57012;-80
2021/09/09 05:57:48;;;;;;;;;30.25;27.00;;;;;-147.91;100.00;58652.34;5006983;28;46476;-81
2021/09/09 06:00:14;;;;;;;;;32.25;29.50;;;;;-147.91;100.00;58652.34;5027978;28;45668;-81
2021/09/09 06:02:44;;;;;;;;;30.25;25.50;;;;;-147.91;100.00;58652.34;5032535;28;46674;-79
2021/09/09 06:05:11;;;;;;;;;34.00;27.00;;;;;-147.91;100.00;58652.34;5024970;28;46331;-80
2021/09/09 06:07:37;;;;;;;;;36.75;30.50;;;;;-147.91;100.00;58652.34;5026504;28;48665;-78
2021/09/09 06:10:03;;;;;;;;;33.25;28.75;;;;;-147.91;100.00;58652.34;5040496;28;45482;-79
2021/09/09 06:12:28;;;;;;;;;29.00;26.50;;;;;-147.91;100.00;58652.34;5043503;28;45613;-79
2021/09/09 06:14:54;;;;;;;;;42.75;30.50;;;;;-147.91;100.00;58652.34;5079968;22;45504;-79
2021/09/09 06:18:03;;;;;;;;;40.25;31.75;;;;;-147.91;100.00;58652.34;5060815;27;46191;-80
2021/09/09 06:20:28;;;;;;;;;37.50;32.00;;;;;-147.91;100.00;58652.34;5049155;28;45829;-79
2021/09/09 06:22:54;;;;;;;;;41.50;31.00;;;;;-147.91;100.00;58652.34;5055946;27;45833;-79
2021/09/09 06:25:19;;;;;;;;;48.00;33.50;;;;;-147.91;100.00;58652.34;5053648;28;45567;-80
2021/09/09 06:27:45;;;;;;;;;40.00;34.25;;;;;-147.91;100.00;58652.34;5065520;28;46120;-79
2021/09/09 06:30:11;;;;;;;;;36.25;31.50;;;;;-147.91;100.00;58652.34;5055238;27;45473;-79
2021/09/09 06:32:36;;;;;;;;;42.25;32.75;;;;;-147.91;100.00;58652.34;5057424;28;48189;-78
2021/09/09 06:35:02;;;;;;;;;42.00;32.25;;;;;-147.91;100.00;58652.34;5057320;27;45786;-79
2021/09/09 06:37:28;;;;;;;;;36.50;29.50;;;;;-147.91;100.00;58652.34;5070270;22;46954;-80
2021/09/09 06:39:53;;;;;;;;;40.75;32.25;;;;;-147.91;100.00;58652.34;5018530;28;46017;-80
2021/09/09 06:42:19;;;;;;;;;38.25;31.25;;;;;-147.91;100.00;58652.34;5018313;28;45423;-79
2021/09/09 06:44:46;;;;;;;;;39.75;32.25;;;;;-147.91;100.00;58652.34;5015486;28;45768;-80
2021/09/09 06:47:11;;;;;;;;;37.00;31.75;;;;;-147.91;100.00;58652.34;5018701;28;46575;-78
2021/09/09 06:49:36;;;;;;;;;28.75;26.50;;;;;-147.91;100.00;58652.34;5018894;28;47876;-79
2021/09/09 06:52:02;;;;;;;;;33.75;30.75;;;;;-147.91;100.00;58652.34;5017775;28;45553;-79
2021/09/09 06:54:28;;;;;;;;;40.75;32.25;;;;;-147.91;100.00;58652.34;5015378;28;45514;-81
2021/09/09 06:56:53;;;;;;;;;46.00;36.75;;;;;-147.91;100.00;58652.34;5012814;28;46445;-80
2021/09/09 06:59:18;;;;;;;;;39.50;28.50;;;;;-147.91;100.00;58652.34;5018834;28;45722;-80
2021/09/09 07:01:44;;;;;;;;;42.00;31.50;;;;;-147.91;100.00;58652.34;5003609;28;45598;-79
2021/09/09 07:04:09;;;;;;;;;36.50;31.00;;;;;-147.91;100.00;58652.34;5016642;28;47380;-79
2021/09/09 07:06:35;;;;;;;;;38.25;30.50;;;;;-147.91;100.00;58652.34;5018671;28;45450;-82
2021/09/09 07:09:00;;;;;;;;;31.25;28.25;;;;;-147.91;100.00;58652.34;5018661;28;45827;-82
2021/09/09 07:11:26;;;;;;;;;35.50;29.50;;;;;-147.91;100.00;58652.34;5003536;28;45447;-79
2021/09/09 07:13:51;;;;;;;;;30.00;28.75;;;;;-147.91;100.00;58652.34;5019783;28;45509;-81
2021/09/09 07:16:16;;;;;;;;;37.25;30.50;;;;;-147.91;100.00;58652.34;5020248;28;46182;-83
2021/09/09 07:18:42;;;;;;;;;35.50;29.25;;;;;-147.91;100.00;58652.34;5022891;28;45533;-81
2021/09/09 07:21:07;;;;;;;;;32.75;29.25;;;;;-147.91;100.00;58652.34;5006030;28;46012;-81
2021/09/09 07:23:33;;;;;;;;;39.25;30.75;;;;;-147.91;100.00;58652.34;5020878;28;45655;-81
2021/09/09 07:25:58;;;;;;;;;33.75;30.00;;;;;-147.91;100.00;58652.34;5020926;28;45563;-81
2021/09/09 07:28:24;;;;;;;;;38.00;29.50;;;;;-147.91;100.00;58652.34;5012203;28;45677;-81
2021/09/09 07:30:49;;;;;;;;;34.00;28.75;;;;;-147.91;100.00;58652.34;5008738;28;45505;-81
2021/09/09 07:33:15;;;;;;;;;35.25;30.75;;;;;-147.91;100.00;58652.34;5016921;28;54857;-81
2021/09/09 07:35:40;;;;;;;;;35.50;31.25;;;;;-147.91;100.00;58652.34;5161543;22;46273;-93
2021/09/09 07:38:06;;;;;;;;;36.75;29.50;;;;;-147.91;100.00;58652.34;5067349;27;45836;-93
2021/09/09 07:40:32;;;;;;;;;34.25;30.25;;;;;-147.91;100.00;58652.34;5091892;27;45460;-94
2021/09/09 07:42:58;;;;;;;;;29.00;27.25;;;;;-147.91;100.00;58652.34;5073251;27;45477;-93
2021/09/09 07:45:24;;;;;;;;;29.50;25.75;;;;;-147.91;100.00;58652.34;5092867;22;45584;-81
2021/09/09 07:47:50;;;;;;;;;40.25;30.50;;;;;-147.91;100.00;58652.34;5057045;28;47614;-81
2021/09/09 07:50:15;;;;;;;;;31.00;28.50;;;;;-147.91;100.00;58652.34;5051087;28;48903;-80
2021/09/09 07:52:41;;;;;;;;;29.50;28.75;;;;;-147.91;100.00;58652.34;5059319;27;52166;-81
2021/09/09 07:57:44;;;;;;;;;36.25;32.00;;;;;-147.91;100.00;58652.34;5189665;22;47083;-93
2021/09/09 08:00:10;;;;;;;;;35.50;31.00;;;;;-147.91;100.00;58652.34;5055611;28;45503;-93
2021/09/09 08:02:36;;;;;;;;;29.50;27.50;;;;;-147.91;100.00;58652.34;5072219;28;45475;-94
2021/09/09 08:05:02;;;;;;;;;39.75;31.75;;;;;-147.91;100.00;58652.34;5087867;22;46318;-82
2021/09/09 08:07:28;;;;;;;;;36.75;31.00;;;;;-147.91;100.00;58652.34;5060425;27;48502;-82
2021/09/09 08:09:53;;;;;;;;;32.75;30.00;;;;;-147.91;100.00;58652.34;5074906;27;45389;-81
2021/09/09 08:12:19;;;;;;;;;29.25;27.00;;;;;-147.91;100.00;58652.34;5074326;27;45567;-81
2021/09/09 08:14:44;;;;;;;;;22.00;20.25;;;;;-147.91;100.00;58652.34;5065319;27;47488;-81
2021/09/09 08:17:10;;;;;;;;;29.00;27.50;;;;;-147.91;100.00;58652.34;5085963;27;45790;-81
2021/09/09 08:19:35;;;;;;;;;38.00;30.75;;;;;-147.91;100.00;58652.34;5121995;22;46165;-81
2021/09/09 08:22:01;;;;;;;;;31.50;27.75;;;;;-147.91;100.00;58652.34;5060900;28;47771;-81
2021/09/09 08:24:26;;;;;;;;;30.75;24.75;;;;;-147.91;100.00;58652.34;5055634;27;47265;-81
2021/09/09 08:26:51;;;;;;;;;29.50;25.00;;;;;-147.91;100.00;58652.34;5077079;27;45348;-81
2021/09/09 08:29:17;;;;;;;;;25.25;22.25;;;;;-147.91;100.00;58652.34;5086669;27;45485;-81
2021/09/09 08:31:43;;;;;;;;;32.75;25.50;;;;;-147.91;100.00;58652.34;5076702;27;45718;-81
2021/09/09 08:34:08;;;;;;;;;35.25;27.75;;;;;-147.91;100.00;58652.34;5064636;27;46687;-81
2021/09/09 08:42:25;;;;;;;;;30.25;24.25;;;;;-147.91;100.00;58652.34;5063590;22;48716;-81
2021/09/09 08:44:50;;;;;;;;;33.00;28.00;;;;;-147.91;100.00;58652.34;5018725;28;46303;-81
2021/09/09 08:47:16;;;;;;;;;27.50;26.50;;;;;-147.91;100.00;58652.34;5018387;28;45509;-81
2021/09/09 08:49:43;;;;;;;;;37.00;27.75;;;;;-147.91;100.00;58652.34;5018350;28;45614;-81
2021/09/09 08:52:10;;;;;;;;;25.00;25.00;;;;;-147.91;100.00;58652.34;5013129;28;46073;-81
2021/09/09 08:54:36;;;;;;;;;28.25;25.75;;;;;-147.91;100.00;58652.34;5044972;22;46371;-92
2021/09/09 08:57:02;;;;;;;;;32.25;26.75;;;;;-147.91;100.00;58652.34;5034455;28;45506;-92
2021/09/09 09:02:21;;;;;;;;;31.50;27.75;;;;;-147.91;100.00;58652.34;5496724;22;45967;-92
2021/09/09 09:05:06;;;;;;;;;26.00;21.75;;;;;-147.91;100.00;58652.34;5053931;28;46074;-90
2021/09/09 09:07:33;;;;;;;;;25.00;21.25;;;;;-147.91;100.00;58652.34;5033765;28;45961;-92
2021/09/09 09:10:00;;;;;;;;;26.00;20.75;;;;;-147.91;100.00;58652.34;5053327;28;45624;-94
2021/09/09 09:12:49;;;;;;;;;21.75;20.75;;;;;-147.91;100.00;58652.34;5046561;28;45561;-92
2021/09/09 09:18:41;;;;;;;;;27.00;24.50;;;;;-147.91;100.00;58652.34;5050686;28;45324;-90
2021/09/09 09:21:07;;;;;;;;;33.50;24.25;;;;;-147.91;100.00;58652.34;5034985;28;45612;-92
2021/09/09 09:23:33;;;;;;;;;25.50;22.00;;;;;-147.91;100.00;58652.34;5036808;28;45609;-92
2021/09/09 09:26:04;;;;;;;;;26.00;20.50;;;;;-147.91;100.00;58652.34;5046034;28;47342;-93
2021/09/09 09:28:35;;;;;;;;;23.50;21.50;;;;;-147.91;100.00;58652.34;5048943;28;45476;-92
2021/09/09 09:31:03;;;;;;;;;24.75;20.50;;;;;-147.91;100.00;58652.34;5052806;28;46792;-92
2021/09/09 09:33:34;;;;;;;;;20.75;20.50;;;;;-147.91;100.00;58652.34;5041716;28;45559;-92
2021/09/09 09:39:31;;;;;;;;;26.25;22.25;;;;;-147.91;100.00;58652.34;4987719;28;45350;-94
2021/09/09 09:42:01;;;;;;;;;24.75;21.00;;;;;-147.91;100.00;58652.34;5042088;28;45496;-92
2021/09/09 09:44:33;;;;;;;;;24.75;20.75;;;;;-147.91;100.00;58652.34;5048128;28;45478;-94
2021/09/09 09:47:21;;;;;;;;;21.75;19.25;;;;;-147.91;100.00;58652.34;5050187;28;48501;-93
2021/09/09 09:49:51;;;;;;;;;20.50;19.75;;;;;-147.91;100.00;58652.34;5047215;28;45488;-93
2021/09/09 09:52:44;;;;;;;;;24.25;21.25;;;;;-147.91;100.00;58652.34;5052067;28;45417;-93
2021/09/09 09:55:30;;;;;;;;;;;;;;;;;;;;;
2021/09/09 09:57:57;;;;;;;;;18.50;17.25;;;;;-147.91;100.00;58652.34;5112537;22;73804;-82
2021/09/09 10:00:23;;;;;;;;;21.50;20.25;;;;;-147.91;100.00;58652.34;5009127;28;45538;-81
2021/09/09 10:02:49;;;;;;;;;23.75;18.75;;;;;-147.91;100.00;58652.34;5013652;28;45534;-81
2021/09/09 10:05:15;;;;;;;;;25.50;21.50;;;;;-147.91;100.00;58652.34;5010223;28;45629;-81
2021/09/09 10:07:41;;;;;;;;;20.75;17.00;;;;;-147.91;100.00;58652.34;4999939;28;47954;-80
2021/09/09 10:10:07;;;;;;;;;22.50;19.00;;;;;-147.91;100.00;58652.34;5011627;28;45408;-81
2021/09/09 10:12:33;;;;;;;;;25.00;20.00;;;;;-147.91;100.00;58652.34;4989938;28;46702;-81
2021/09/09 10:15:05;;;;;;;;;22.50;18.50;;;;;-147.91;100.00;58652.34;5008634;28;50721;-81
2021/09/09 10:17:34;;;;;;;;;20.75;19.75;;;;;-147.91;100.00;58652.34;5028868;28;47640;-83
2021/09/09 10:20:30;;;;;;;;;25.00;20.75;;;;;-147.91;100.00;58652.34;5011533;28;45479;-83
2021/09/09 10:23:11;;;;;;;;;19.00;17.00;;;;;-147.91;100.00;58652.34;4992903;28;45618;-82
2021/09/09 10:25:40;;;;;;;;;21.50;19.75;;;;;-147.91;100.00;58652.34;4985213;28;45524;-84
2021/09/09 10:28:38;;;;;;;;;24.25;20.25;;;;;-147.91;100.00;58652.34;5019442;28;46640;-81
2021/09/09 10:31:31;;;;;;;;;32.00;23.75;;;;;-147.91;100.00;58652.34;5011280;28;47065;-82
2021/09/09 10:33:56;;;;;;;;;24.00;20.50;;;;;-147.91;100.00;58652.34;5018954;28;46715;-83
2021/09/09 10:36:45;;;;;;;;;21.75;19.00;;;;;-147.91;100.00;58652.34;5007612;28;45592;-82
2021/09/09 10:39:17;;;;;;;;;28.25;20.75;;;;;-147.91;100.00;58652.34;4990923;28;47673;-84
2021/09/09 10:41:43;;;;;;;;;22.25;21.25;;;;;-147.91;100.00;58652.34;4995543;28;45652;-78
2021/09/09 10:44:10;;;;;;;;;23.75;21.75;;;;;-147.91;100.00;58652.34;5015728;28;45584;-81
2021/09/09 10:46:39;;;;;;;;;22.50;20.00;;;;;-147.91;100.00;58652.34;5012022;28;46583;-80
2021/09/09 10:49:17;;;;;;;;;29.75;24.50;;;;;-147.91;100.00;58652.34;5018087;28;46484;-80
2021/09/09 10:52:08;;;;;;;;;23.50;20.75;;;;;-147.91;100.00;58652.34;5014182;28;45655;-80
2021/09/09 10:54:59;;;;;;;;;19.50;18.00;;;;;-147.91;100.00;58652.34;5014751;28;47099;-80
2021/09/09 10:57:24;;;;;;;;;23.50;19.50;;;;;-147.91;100.00;58652.34;5014901;28;45585;-81
2021/09/09 10:59:50;;;;;;;;;22.50;20.00;;;;;-147.91;100.00;58652.34;5012286;28;46289;-80
2021/09/09 11:02:17;;;;;;;;;20.50;19.00;;;;;-147.91;100.00;58652.34;4998640;28;45892;-80
2021/09/09 11:04:44;;;;;;;;;22.00;18.00;;;;;-147.91;100.00;58652.34;5012856;28;45648;-82
2021/09/09 11:07:23;;;;;;;;;26.50;21.25;;;;;-147.91;100.00;58652.34;5050105;22;46132;-96
2021/09/09 11:10:06;;;;;;;;;21.25;18.25;;;;;-147.91;100.00;58652.34;5012935;28;46986;-96
2021/09/09 11:12:39;;;;;;;;;21.00;19.50;;;;;-147.91;100.00;58652.34;5014762;28;45297;-96
2021/09/09 11:15:08;;;;;;;;;23.75;19.75;;;;;-147.91;100.00;58652.34;5036245;22;46693;-84
2021/09/09 11:17:35;;;;;;;;;20.00;17.75;;;;;-147.91;100.00;58652.34;5037480;28;45679;-82